sensor_id;sensor_type;location;lat;lon;timestamp;pressure;altitude;pressure_sealevel;temperature;humidity
52983;BME280;48698;45.736;13.926;2022-11-20T00:03:16;96675.19;;;4.90;100.00
52983;BME280;48698;45.736;13.926;2022-11-20T00:08:20;96721.84;;;5.05;100.00
52983;BME280;48698;45.736;13.926;2022-11-20T00:13:24;96645.06;;;4.77;100.00
52983;BME280;48698;45.736;13.926;2022-11-20T00:18:34;96763.81;;;5.28;100.00
52983;BME280;48698;45.736;13.926;2022-11-20T00:23:38;96609.91;;;4.39;100.00
52983;BME280;48698;45.736;13.926;2022-11-20T00:28:43;96754.41;;;5.22;100.00
52983;BME280;48698;45.736;13.926;2022-11-20T00:33:50;96808.41;;;5.31;100.00
52983;BME280;48698;45.736;13.926;2022-11-20T00:38:56;96786.13;;;4.99;100.00
52983;BME280;48698;45.736;13.926;2022-11-20T00:44:00;96758.16;;;4.77;100.00
52983;BME280;48698;45.736;13.926;2022-11-20T00:49:04;96734.66;;;4.52;100.00
52983;BME280;48698;45.736;13.926;2022-11-20T00:54:07;96836.63;;;5.07;100.00
52983;BME280;48698;45.736;13.926;2022-11-20T00:59:11;96771.97;;;4.82;100.00
52983;BME280;48698;45.736;13.926;2022-11-20T01:04:15;96836.03;;;5.01;100.00
52983;BME280;48698;45.736;13.926;2022-11-20T01:09:18;96677.78;;;3.87;100.00
52983;BME280;48698;45.736;13.926;2022-11-20T01:14:22;96632.13;;;3.68;100.00
52983;BME280;48698;45.736;13.926;2022-11-20T01:19:26;96843.19;;;4.97;100.00
52983;BME280;48698;45.736;13.926;2022-11-20T01:24:30;96692.66;;;4.08;100.00
52983;BME280;48698;45.736;13.926;2022-11-20T01:29:33;96574.94;;;3.33;100.00
52983;BME280;48698;45.736;13.926;2022-11-20T01:34:47;96763.31;;;4.58;100.00
52983;BME280;48698;45.736;13.926;2022-11-20T01:39:51;96682.50;;;4.21;100.00
52983;BME280;48698;45.736;13.926;2022-11-20T01:44:59;96846.53;;;5.22;100.00
52983;BME280;48698;45.736;13.926;2022-11-20T01:50:06;96847.66;;;5.17;100.00
52983;BME280;48698;45.736;13.926;2022-11-20T01:55:18;96846.19;;;5.10;100.00
52983;BME280;48698;45.736;13.926;2022-11-20T02:00:23;96839.28;;;5.07;100.00
52983;BME280;48698;45.736;13.926;2022-11-20T02:10:33;96609.19;;;3.51;100.00
52983;BME280;48698;45.736;13.926;2022-11-20T02:15:37;96806.00;;;4.64;100.00
52983;BME280;48698;45.736;13.926;2022-11-20T02:20:43;96777.28;;;4.38;100.00
52983;BME280;48698;45.736;13.926;2022-11-20T02:25:47;96733.19;;;4.03;100.00
52983;BME280;48698;45.736;13.926;2022-11-20T02:30:52;96716.72;;;3.98;100.00
52983;BME280;48698;45.736;13.926;2022-11-20T02:35:55;96768.25;;;4.45;100.00
52983;BME280;48698;45.736;13.926;2022-11-20T02:40:59;96773.38;;;4.48;100.00
52983;BME280;48698;45.736;13.926;2022-11-20T02:46:03;96588.81;;;3.36;100.00
52983;BME280;48698;45.736;13.926;2022-11-20T02:51:06;96706.72;;;4.07;100.00
52983;BME280;48698;45.736;13.926;2022-11-20T02:56:10;96674.34;;;4.07;100.00
52983;BME280;48698;45.736;13.926;2022-11-20T03:01:14;96705.66;;;4.11;100.00
52983;BME280;48698;45.736;13.926;2022-11-20T03:06:18;96798.38;;;5.00;100.00
52983;BME280;48698;45.736;13.926;2022-11-20T03:11:21;96819.22;;;5.05;100.00
52983;BME280;48698;45.736;13.926;2022-11-20T03:16:25;96791.31;;;5.01;100.00
52983;BME280;48698;45.736;13.926;2022-11-20T03:21:29;96798.69;;;4.93;100.00
52983;BME280;48698;45.736;13.926;2022-11-20T03:26:33;96752.63;;;4.62;100.00
52983;BME280;48698;45.736;13.926;2022-11-20T03:31:38;96815.09;;;5.19;100.00
52983;BME280;48698;45.736;13.926;2022-11-20T03:36:45;96813.69;;;5.11;100.00
52983;BME280;48698;45.736;13.926;2022-11-20T03:41:49;96783.22;;;4.85;100.00
52983;BME280;48698;45.736;13.926;2022-11-20T03:46:53;96803.75;;;4.97;100.00
52983;BME280;48698;45.736;13.926;2022-11-20T03:51:56;96813.69;;;5.11;100.00
52983;BME280;48698;45.736;13.926;2022-11-20T03:57:00;96724.09;;;4.74;100.00
52983;BME280;48698;45.736;13.926;2022-11-20T04:02:04;96821.56;;;5.31;100.00
52983;BME280;48698;45.736;13.926;2022-11-20T04:07:08;96572.03;;;4.04;100.00
52983;BME280;48698;45.736;13.926;2022-11-20T04:12:12;96615.03;;;4.62;100.00
52983;BME280;48698;45.736;13.926;2022-11-20T04:17:16;96803.88;;;5.73;100.00
52983;BME280;48698;45.736;13.926;2022-11-20T04:22:19;96706.81;;;5.27;100.00
52983;BME280;48698;45.736;13.926;2022-11-20T04:27:23;96771.25;;;5.57;100.00
52983;BME280;48698;45.736;13.926;2022-11-20T04:32:27;96793.41;;;5.53;100.00
52983;BME280;48698;45.736;13.926;2022-11-20T04:37:30;96665.25;;;4.76;100.00
52983;BME280;48698;45.736;13.926;2022-11-20T04:42:34;96791.22;;;5.82;100.00
52983;BME280;48698;45.736;13.926;2022-11-20T04:47:38;96698.47;;;5.56;100.00
52983;BME280;48698;45.736;13.926;2022-11-20T04:52:41;96806.44;;;5.95;100.00
52983;BME280;48698;45.736;13.926;2022-11-20T04:57:45;96794.13;;;5.76;100.00
52983;BME280;48698;45.736;13.926;2022-11-20T05:02:48;96616.13;;;4.77;100.00
52983;BME280;48698;45.736;13.926;2022-11-20T05:07:52;96791.53;;;5.55;100.00
52983;BME280;48698;45.736;13.926;2022-11-20T05:12:57;96581.31;;;4.51;100.00
52983;BME280;48698;45.736;13.926;2022-11-20T05:18:00;96567.19;;;4.54;100.00
52983;BME280;48698;45.736;13.926;2022-11-20T05:23:04;96753.25;;;5.48;100.00
52983;BME280;48698;45.736;13.926;2022-11-20T05:28:07;96824.56;;;5.83;100.00
52983;BME280;48698;45.736;13.926;2022-11-20T05:33:11;96803.00;;;5.93;100.00
52983;BME280;48698;45.736;13.926;2022-11-20T05:38:20;96702.63;;;5.60;100.00
52983;BME280;48698;45.736;13.926;2022-11-20T05:43:24;96820.53;;;5.94;100.00
52983;BME280;48698;45.736;13.926;2022-11-20T05:48:28;96876.88;;;6.10;100.00
52983;BME280;48698;45.736;13.926;2022-11-20T05:53:33;96863.06;;;6.24;100.00
52983;BME280;48698;45.736;13.926;2022-11-20T05:58:38;96763.38;;;5.76;100.00
52983;BME280;48698;45.736;13.926;2022-11-20T06:03:43;96863.34;;;6.55;100.00
52983;BME280;48698;45.736;13.926;2022-11-20T06:08:49;96634.75;;;5.30;100.00
52983;BME280;48698;45.736;13.926;2022-11-20T06:13:52;96873.19;;;6.52;100.00
52983;BME280;48698;45.736;13.926;2022-11-20T06:18:56;96703.56;;;5.41;100.00
52983;BME280;48698;45.736;13.926;2022-11-20T06:23:59;96809.72;;;6.19;100.00
52983;BME280;48698;45.736;13.926;2022-11-20T06:29:13;96871.75;;;6.63;100.00
52983;BME280;48698;45.736;13.926;2022-11-20T06:34:17;96747.97;;;5.67;100.00
52983;BME280;48698;45.736;13.926;2022-11-20T06:39:20;96820.66;;;6.10;100.00
52983;BME280;48698;45.736;13.926;2022-11-20T06:44:24;96672.25;;;5.53;100.00
52983;BME280;48698;45.736;13.926;2022-11-20T06:49:27;96745.03;;;5.93;100.00
52983;BME280;48698;45.736;13.926;2022-11-20T06:54:37;96705.13;;;5.63;100.00
52983;BME280;48698;45.736;13.926;2022-11-20T06:59:40;96849.38;;;6.53;100.00
52983;BME280;48698;45.736;13.926;2022-11-20T07:04:44;96875.19;;;6.65;100.00
52983;BME280;48698;45.736;13.926;2022-11-20T07:09:48;96802.22;;;5.91;100.00
52983;BME280;48698;45.736;13.926;2022-11-20T07:14:51;96899.34;;;6.38;100.00
52983;BME280;48698;45.736;13.926;2022-11-20T07:19:54;96894.25;;;5.96;100.00
52983;BME280;48698;45.736;13.926;2022-11-20T07:24:58;96928.22;;;6.22;100.00
52983;BME280;48698;45.736;13.926;2022-11-20T07:30:03;96944.97;;;6.77;100.00
52983;BME280;48698;45.736;13.926;2022-11-20T07:35:06;96898.53;;;6.73;100.00
52983;BME280;48698;45.736;13.926;2022-11-20T07:40:11;96761.22;;;5.47;100.00
52983;BME280;48698;45.736;13.926;2022-11-20T07:45:23;96887.28;;;6.13;100.00
52983;BME280;48698;45.736;13.926;2022-11-20T07:50:27;96895.47;;;7.18;100.00
52983;BME280;48698;45.736;13.926;2022-11-20T07:55:31;96896.63;;;6.58;100.00
52983;BME280;48698;45.736;13.926;2022-11-20T08:00:35;96956.09;;;6.84;100.00
52983;BME280;48698;45.736;13.926;2022-11-20T08:05:39;96977.78;;;6.71;100.00
52983;BME280;48698;45.736;13.926;2022-11-20T08:10:43;96938.72;;;6.42;100.00
52983;BME280;48698;45.736;13.926;2022-11-20T08:15:50;96981.28;;;6.91;100.00
52983;BME280;48698;45.736;13.926;2022-11-20T08:20:54;96924.56;;;6.43;100.00
52983;BME280;48698;45.736;13.926;2022-11-20T08:25:58;96845.81;;;6.17;100.00
52983;BME280;48698;45.736;13.926;2022-11-20T08:31:02;96858.81;;;6.03;100.00
52983;BME280;48698;45.736;13.926;2022-11-20T08:36:07;96843.00;;;6.03;100.00
52983;BME280;48698;45.736;13.926;2022-11-20T08:41:11;96722.72;;;5.24;100.00
52983;BME280;48698;45.736;13.926;2022-11-20T08:46:37;96925.72;;;6.38;100.00
52983;BME280;48698;45.736;13.926;2022-11-20T08:51:41;96778.59;;;5.10;100.00
52983;BME280;48698;45.736;13.926;2022-11-20T08:56:45;96823.31;;;5.32;100.00
52983;BME280;48698;45.736;13.926;2022-11-20T09:01:48;97009.97;;;6.41;100.00
52983;BME280;48698;45.736;13.926;2022-11-20T09:06:52;96785.28;;;4.99;100.00
52983;BME280;48698;45.736;13.926;2022-11-20T09:11:55;96986.31;;;6.39;100.00
52983;BME280;48698;45.736;13.926;2022-11-20T09:17:05;96967.25;;;6.53;100.00
52983;BME280;48698;45.736;13.926;2022-11-20T09:22:10;97043.56;;;6.95;100.00
52983;BME280;48698;45.736;13.926;2022-11-20T09:27:19;96994.03;;;7.00;100.00
52983;BME280;48698;45.736;13.926;2022-11-20T09:32:25;97035.31;;;7.02;100.00
52983;BME280;48698;45.736;13.926;2022-11-20T09:37:35;97012.09;;;6.90;100.00
52983;BME280;48698;45.736;13.926;2022-11-20T09:42:45;97046.13;;;6.96;100.00
52983;BME280;48698;45.736;13.926;2022-11-20T09:48:12;96944.19;;;6.38;100.00
52983;BME280;48698;45.736;13.926;2022-11-20T09:59:04;97054.13;;;7.13;100.00
52983;BME280;48698;45.736;13.926;2022-11-20T10:04:17;96998.56;;;7.34;100.00
52983;BME280;48698;45.736;13.926;2022-11-20T10:09:35;97028.63;;;7.31;100.00
52983;BME280;48698;45.736;13.926;2022-11-20T10:15:01;97070.81;;;7.33;100.00
52983;BME280;48698;45.736;13.926;2022-11-20T10:20:22;97058.34;;;7.17;100.00
52983;BME280;48698;45.736;13.926;2022-11-20T10:25:40;97057.00;;;7.09;100.00
52983;BME280;48698;45.736;13.926;2022-11-20T10:30:57;96975.78;;;6.95;100.00
52983;BME280;48698;45.736;13.926;2022-11-20T10:36:27;97039.84;;;7.17;100.00
52983;BME280;48698;45.736;13.926;2022-11-20T10:41:41;96972.66;;;6.68;100.00
52983;BME280;48698;45.736;13.926;2022-11-20T10:46:45;96981.63;;;6.46;100.00
52983;BME280;48698;45.736;13.926;2022-11-20T10:57:29;97089.44;;;7.48;100.00
52983;BME280;48698;45.736;13.926;2022-11-20T11:02:51;97085.03;;;7.85;100.00
52983;BME280;48698;45.736;13.926;2022-11-20T11:07:56;97067.34;;;7.68;100.00
52983;BME280;48698;45.736;13.926;2022-11-20T11:13:01;97080.97;;;7.77;100.00
52983;BME280;48698;45.736;13.926;2022-11-20T11:18:22;97004.34;;;7.42;100.00
52983;BME280;48698;45.736;13.926;2022-11-20T11:23:40;97062.63;;;7.74;100.00
52983;BME280;48698;45.736;13.926;2022-11-20T11:29:03;96943.56;;;7.24;100.00
52983;BME280;48698;45.736;13.926;2022-11-20T11:34:17;97094.09;;;8.15;100.00
52983;BME280;48698;45.736;13.926;2022-11-20T11:39:20;96968.91;;;7.10;100.00
52983;BME280;48698;45.736;13.926;2022-11-20T11:44:30;97001.75;;;7.40;100.00
52983;BME280;48698;45.736;13.926;2022-11-20T11:55:19;96909.50;;;7.01;100.00
52983;BME280;48698;45.736;13.926;2022-11-20T12:00:27;97027.25;;;7.77;100.00
52983;BME280;48698;45.736;13.926;2022-11-20T12:05:49;97012.47;;;7.37;100.00
52983;BME280;48698;45.736;13.926;2022-11-20T12:16:02;96972.03;;;7.71;100.00
52983;BME280;48698;45.736;13.926;2022-11-20T12:21:15;97093.00;;;8.53;100.00
52983;BME280;48698;45.736;13.926;2022-11-20T12:32:18;97080.72;;;8.85;100.00
52983;BME280;48698;45.736;13.926;2022-11-20T12:43:15;97016.91;;;8.07;100.00
52983;BME280;48698;45.736;13.926;2022-11-20T12:59:16;96982.47;;;7.91;100.00
52983;BME280;48698;45.736;13.926;2022-11-20T13:09:43;96955.66;;;7.64;100.00
52983;BME280;48698;45.736;13.926;2022-11-20T13:20:30;96975.38;;;8.09;100.00
52983;BME280;48698;45.736;13.926;2022-11-20T13:25:39;97038.38;;;8.52;100.00
52983;BME280;48698;45.736;13.926;2022-11-20T13:30:51;96838.00;;;7.06;100.00
52983;BME280;48698;45.736;13.926;2022-11-20T13:35:59;97051.13;;;8.27;100.00
52983;BME280;48698;45.736;13.926;2022-11-20T13:41:07;97060.09;;;8.07;100.00
52983;BME280;48698;45.736;13.926;2022-11-20T13:46:46;97038.22;;;7.87;100.00
52983;BME280;48698;45.736;13.926;2022-11-20T13:51:51;97046.38;;;7.99;100.00
52983;BME280;48698;45.736;13.926;2022-11-20T14:02:27;97028.84;;;7.62;100.00
52983;BME280;48698;45.736;13.926;2022-11-20T14:07:35;97008.09;;;7.55;100.00
52983;BME280;48698;45.736;13.926;2022-11-20T14:12:40;96909.53;;;6.83;100.00
52983;BME280;48698;45.736;13.926;2022-11-20T14:17:44;96994.69;;;7.41;100.00
52983;BME280;48698;45.736;13.926;2022-11-20T14:22:52;96895.06;;;6.72;100.00
52983;BME280;48698;45.736;13.926;2022-11-20T14:27:57;96989.63;;;7.19;100.00
52983;BME280;48698;45.736;13.926;2022-11-20T14:33:03;97031.88;;;7.19;100.00
52983;BME280;48698;45.736;13.926;2022-11-20T14:38:10;96905.41;;;6.58;100.00
52983;BME280;48698;45.736;13.926;2022-11-20T14:48:48;96923.72;;;6.24;100.00
52983;BME280;48698;45.736;13.926;2022-11-20T14:53:48;97039.63;;;7.22;100.00
52983;BME280;48698;45.736;13.926;2022-11-20T14:58:57;97062.81;;;6.97;100.00
52983;BME280;48698;45.736;13.926;2022-11-20T15:04:09;97054.25;;;7.10;100.00
52983;BME280;48698;45.736;13.926;2022-11-20T15:09:14;96922.38;;;5.95;100.00
52983;BME280;48698;45.736;13.926;2022-11-20T15:14:17;97022.22;;;6.23;100.00
52983;BME280;48698;45.736;13.926;2022-11-20T15:19:24;96917.09;;;5.55;100.00
52983;BME280;48698;45.736;13.926;2022-11-20T15:24:35;96800.00;;;4.61;100.00
52983;BME280;48698;45.736;13.926;2022-11-20T15:29:37;97097.22;;;6.16;100.00
52983;BME280;48698;45.736;13.926;2022-11-20T15:34:40;96953.25;;;5.09;100.00
52983;BME280;48698;45.736;13.926;2022-11-20T15:39:43;96838.00;;;4.32;100.00
52983;BME280;48698;45.736;13.926;2022-11-20T15:44:46;97079.97;;;5.65;100.00
52983;BME280;48698;45.736;13.926;2022-11-20T15:49:48;97095.34;;;5.76;100.00
52983;BME280;48698;45.736;13.926;2022-11-20T15:54:51;97063.44;;;5.62;100.00
52983;BME280;48698;45.736;13.926;2022-11-20T15:59:54;96907.66;;;4.65;100.00
52983;BME280;48698;45.736;13.926;2022-11-20T16:04:57;96952.94;;;4.74;100.00
52983;BME280;48698;45.736;13.926;2022-11-20T16:10:02;97095.53;;;5.71;100.00
52983;BME280;48698;45.736;13.926;2022-11-20T16:15:08;97071.50;;;5.57;100.00
52983;BME280;48698;45.736;13.926;2022-11-20T16:20:30;97053.44;;;5.48;100.00
52983;BME280;48698;45.736;13.926;2022-11-20T16:25:33;97098.78;;;5.56;100.00
52983;BME280;48698;45.736;13.926;2022-11-20T16:30:36;97018.91;;;5.12;100.00
52983;BME280;48698;45.736;13.926;2022-11-20T16:35:38;97001.34;;;5.13;100.00
52983;BME280;48698;45.736;13.926;2022-11-20T16:40:41;97050.38;;;5.59;100.00
52983;BME280;48698;45.736;13.926;2022-11-20T16:45:44;97075.44;;;5.91;100.00
52983;BME280;48698;45.736;13.926;2022-11-20T16:50:52;97029.09;;;5.63;100.00
52983;BME280;48698;45.736;13.926;2022-11-20T16:55:54;96973.66;;;5.46;100.00
52983;BME280;48698;45.736;13.926;2022-11-20T17:01:04;96960.94;;;5.36;100.00
52983;BME280;48698;45.736;13.926;2022-11-20T17:06:15;96994.38;;;5.54;100.00
52983;BME280;48698;45.736;13.926;2022-11-20T17:11:18;96881.28;;;4.89;100.00
52983;BME280;48698;45.736;13.926;2022-11-20T17:16:22;97012.81;;;5.54;100.00
52983;BME280;48698;45.736;13.926;2022-11-20T17:21:26;96983.78;;;5.35;100.00
52983;BME280;48698;45.736;13.926;2022-11-20T17:26:31;97069.44;;;5.65;100.00
52983;BME280;48698;45.736;13.926;2022-11-20T17:31:34;97079.00;;;5.90;100.00
52983;BME280;48698;45.736;13.926;2022-11-20T17:36:37;97065.16;;;5.63;100.00
52983;BME280;48698;45.736;13.926;2022-11-20T17:41:46;97031.59;;;5.03;100.00
52983;BME280;48698;45.736;13.926;2022-11-20T17:47:09;96958.28;;;4.49;100.00
52983;BME280;48698;45.736;13.926;2022-11-20T17:52:12;96889.56;;;3.90;100.00
52983;BME280;48698;45.736;13.926;2022-11-20T17:57:18;97100.66;;;4.61;100.00
52983;BME280;48698;45.736;13.926;2022-11-20T18:02:40;96870.72;;;3.29;100.00
52983;BME280;48698;45.736;13.926;2022-11-20T18:07:46;96881.53;;;3.20;100.00
52983;BME280;48698;45.736;13.926;2022-11-20T18:12:49;97058.47;;;4.16;100.00
52983;BME280;48698;45.736;13.926;2022-11-20T18:17:52;96971.72;;;3.44;100.00
52983;BME280;48698;45.736;13.926;2022-11-20T18:22:55;97093.91;;;4.05;100.00
52983;BME280;48698;45.736;13.926;2022-11-20T18:27:58;97032.28;;;3.38;100.00
52983;BME280;48698;45.736;13.926;2022-11-20T18:33:01;97061.50;;;3.53;100.00
52983;BME280;48698;45.736;13.926;2022-11-20T18:38:03;97106.59;;;3.38;100.00
52983;BME280;48698;45.736;13.926;2022-11-20T18:43:09;97124.34;;;3.58;100.00
52983;BME280;48698;45.736;13.926;2022-11-20T18:48:31;97092.19;;;2.96;100.00
52983;BME280;48698;45.736;13.926;2022-11-20T18:53:34;97053.22;;;2.54;100.00
52983;BME280;48698;45.736;13.926;2022-11-20T18:58:37;97139.13;;;3.05;100.00
52983;BME280;48698;45.736;13.926;2022-11-20T19:03:42;97101.97;;;1.97;100.00
52983;BME280;48698;45.736;13.926;2022-11-20T19:08:55;97177.56;;;2.11;100.00
52983;BME280;48698;45.736;13.926;2022-11-20T19:13:58;97043.53;;;1.27;100.00
52983;BME280;48698;45.736;13.926;2022-11-20T19:19:03;96908.72;;;0.43;100.00
52983;BME280;48698;45.736;13.926;2022-11-20T19:24:11;97147.47;;;1.93;100.00
52983;BME280;48698;45.736;13.926;2022-11-20T19:29:15;97182.41;;;1.92;100.00
52983;BME280;48698;45.736;13.926;2022-11-20T19:34:28;97182.53;;;1.86;100.00
52983;BME280;48698;45.736;13.926;2022-11-20T19:39:30;97052.53;;;0.79;100.00
52983;BME280;48698;45.736;13.926;2022-11-20T19:44:34;97175.91;;;1.36;100.00
52983;BME280;48698;45.736;13.926;2022-11-20T19:49:37;97167.13;;;1.37;100.00
52983;BME280;48698;45.736;13.926;2022-11-20T19:54:44;97059.28;;;0.87;100.00
52983;BME280;48698;45.736;13.926;2022-11-20T19:59:46;97090.88;;;0.77;100.00
52983;BME280;48698;45.736;13.926;2022-11-20T20:04:49;97173.53;;;1.24;100.00
52983;BME280;48698;45.736;13.926;2022-11-20T20:09:52;97158.31;;;1.41;100.00
52983;BME280;48698;45.736;13.926;2022-11-20T20:14:55;97111.84;;;0.75;100.00
52983;BME280;48698;45.736;13.926;2022-11-20T20:19:57;97042.22;;;0.31;100.00
52983;BME280;48698;45.736;13.926;2022-11-20T20:25:00;97132.47;;;0.89;100.00
52983;BME280;48698;45.736;13.926;2022-11-20T20:30:04;97108.81;;;0.93;100.00
52983;BME280;48698;45.736;13.926;2022-11-20T20:35:07;97138.06;;;1.12;100.00
52983;BME280;48698;45.736;13.926;2022-11-20T20:40:11;97135.84;;;0.94;100.00
52983;BME280;48698;45.736;13.926;2022-11-20T20:45:16;97023.50;;;0.52;100.00
52983;BME280;48698;45.736;13.926;2022-11-20T20:50:21;97143.31;;;1.11;100.00
52983;BME280;48698;45.736;13.926;2022-11-20T20:55:24;97052.59;;;0.76;100.00
52983;BME280;48698;45.736;13.926;2022-11-20T21:00:27;97035.19;;;0.75;100.00
52983;BME280;48698;45.736;13.926;2022-11-20T21:05:29;96994.72;;;0.54;100.00
52983;BME280;48698;45.736;13.926;2022-11-20T21:10:32;96901.19;;;-0.07;100.00
52983;BME280;48698;45.736;13.926;2022-11-20T21:15:39;97136.38;;;1.46;100.00
52983;BME280;48698;45.736;13.926;2022-11-20T21:20:43;97054.94;;;0.88;100.00
52983;BME280;48698;45.736;13.926;2022-11-20T21:26:06;97050.81;;;1.15;100.00
52983;BME280;48698;45.736;13.926;2022-11-20T21:31:17;97025.63;;;1.12;100.00
52983;BME280;48698;45.736;13.926;2022-11-20T21:36:22;97095.56;;;2.08;100.00
52983;BME280;48698;45.736;13.926;2022-11-20T21:41:29;97130.72;;;2.63;100.00
52983;BME280;48698;45.736;13.926;2022-11-20T21:46:33;97112.69;;;2.52;100.00
52983;BME280;48698;45.736;13.926;2022-11-20T21:51:36;97119.56;;;2.56;100.00
52983;BME280;48698;45.736;13.926;2022-11-20T21:56:39;96961.91;;;1.81;100.00
52983;BME280;48698;45.736;13.926;2022-11-20T22:01:42;97018.41;;;3.06;100.00
52983;BME280;48698;45.736;13.926;2022-11-20T22:06:44;97032.41;;;3.61;100.00
52983;BME280;48698;45.736;13.926;2022-11-20T22:11:47;97022.47;;;3.69;100.00
52983;BME280;48698;45.736;13.926;2022-11-20T22:16:51;97064.34;;;3.74;100.00
52983;BME280;48698;45.736;13.926;2022-11-20T23:20:34;97027.06;;;3.62;100.00
52983;BME280;48698;45.736;13.926;2022-11-20T23:25:38;96956.25;;;2.54;100.00
52983;BME280;48698;45.736;13.926;2022-11-20T23:30:45;96821.78;;;1.38;100.00
52983;BME280;48698;45.736;13.926;2022-11-20T23:35:49;97007.69;;;2.58;100.00
52983;BME280;48698;45.736;13.926;2022-11-20T23:40:53;96994.22;;;2.69;100.00
52983;BME280;48698;45.736;13.926;2022-11-20T23:45:58;97018.50;;;3.31;100.00
52983;BME280;48698;45.736;13.926;2022-11-20T23:51:04;97028.91;;;3.60;100.00
52983;BME280;48698;45.736;13.926;2022-11-20T23:56:09;96917.06;;;3.30;100.00
